• Join FlightAware (Why Join?)
  • Login
  • US Flag 
05:20AM EST


 

Airport Tracker/Info


-or-


 

Live Flight TrackerFlight Track Log ✈ KFS724 ✈ 19-Apr-2013 ✈ CYQG - KYIP

Flight Track Log - Related Links

Times and Time Zones

All times are in EDT time to prevent confusion due to time zone crossing. See the KFS724 flight status page for this flight to view local times or setup timezone preferences in your user account.

Time Position Orientation Groundspeed Altitude Reporting Facility
EDT Latitude Longitude Course Direction KTS MPH feet Rate Location/Type
12:30PM 42.2772 -82.9631 211° Southwest 107 123 1,300  Level Cleveland Center
12:31PM 42.2708 -82.9683 211° Southwest 113 130 2,100 2,760 Climbing Cleveland Center
12:32PM 42.2178 -83.0083 209° Southwest 223 257 5,000 1,380 Climbing Cleveland Center
12:33PM 42.1814 -83.0603 227° Southwest 225 259 5,000  Level Cleveland Center
12:34PM 42.1936 -83.1258 284° West 217 250 5,000  Level FAA TRACON SMA TRACON (SMA)
12:34PM 42.1981 -83.1506 284° West 219 252 5,000  Level FAA TRACON SMA TRACON (SMA)
12:34PM 42.2031 -83.1817 282° West 220 253 5,000  Level FAA TRACON SMA TRACON (SMA)
12:35PM 42.2081 -83.2067 285° West 230 265 5,000  Level FAA TRACON SMA TRACON (SMA)
12:35PM 42.2322 -83.2561 303° West 233 268 5,000  Level FAA TRACON SMA TRACON (SMA)
12:36PM 42.2431 -83.2781 304° West 234 269 5,000  Level FAA TRACON SMA TRACON (SMA)
12:36PM 42.2567 -83.3061 303° West 239 275 5,000 -180 Level FAA TRACON SMA TRACON (SMA)
12:36PM 42.2672 -83.3297 301° West 230 265 4,900 -600 Descending FAA TRACON SMA TRACON (SMA)
12:37PM 42.2772 -83.3544 299° West 219 252 4,600 -1,200 Descending FAA TRACON SMA TRACON (SMA)
12:37PM 42.2850 -83.3717 301° West 219 252 4,100 -1,800 Descending FAA TRACON SMA TRACON (SMA)
12:37PM 42.2964 -83.4003 298° West 199 229 3,400 -1,620 Descending FAA TRACON SMA TRACON (SMA)
12:38PM 42.3028 -83.4203 293° West 173 199 3,000 -900 Descending FAA TRACON SMA TRACON (SMA)
12:38PM 42.2986 -83.4425 256° West 148 170 2,800 -600 Descending FAA TRACON SMA TRACON (SMA)
12:38PM 42.2908 -83.4536 227° Southwest 123 142 2,600 -1,080 Descending FAA TRACON SMA TRACON (SMA)
12:39PM 42.2839 -83.4633 226° Southwest 116 133 2,100 -1,500 Descending FAA TRACON SMA TRACON (SMA)
12:39PM 42.2758 -83.4747 226° Southwest 112 129 1,600 -1,080 Descending FAA TRACON SMA TRACON (SMA)
12:39PM 42.2692 -83.4844 227° Southwest 113 130 1,400 -480 Descending FAA TRACON SMA TRACON (SMA)
12:40PM 42.2633 -83.4925 226° Southwest 112 129 1,300 -600 Descending FAA TRACON SMA TRACON (SMA)
12:40PM 42.2556 -83.5039 227° Southwest 118 136 1,000 -600 Descending FAA TRACON SMA TRACON (SMA)
12:40PM 42.2508 -83.5108 227° Southwest 121 139 900 -180 Descending FAA TRACON SMA TRACON (SMA)
12:41PM 42.2508 -83.5108 323° Northwest 121 139 900  Level FAA TRACON SMA TRACON (SMA)